sensor_id;sensor_type;location;lat;lon;timestamp;pressure;altitude;pressure_sealevel;temperature
80422;BMP280;69763;50.182;9.144;2023-06-01T00:00:34;100351.78;;;13.63
80422;BMP280;69763;50.182;9.144;2023-06-01T00:03:00;100350.06;;;13.52
80422;BMP280;69763;50.182;9.144;2023-06-01T00:05:26;100354.34;;;13.48
80422;BMP280;69763;50.182;9.144;2023-06-01T00:07:51;100355.81;;;13.49
80422;BMP280;69763;50.182;9.144;2023-06-01T00:10:17;100355.63;;;13.47
80422;BMP280;69763;50.182;9.144;2023-06-01T00:12:42;100355.91;;;13.43
80422;BMP280;69763;50.182;9.144;2023-06-01T00:15:08;100362.75;;;13.36
80422;BMP280;69763;50.182;9.144;2023-06-01T00:17:34;100357.94;;;13.29
80422;BMP280;69763;50.182;9.144;2023-06-01T00:20:00;100355.59;;;13.20
80422;BMP280;69763;50.182;9.144;2023-06-01T00:22:26;100352.47;;;13.16
80422;BMP280;69763;50.182;9.144;2023-06-01T00:24:51;100362.31;;;13.19
80422;BMP280;69763;50.182;9.144;2023-06-01T00:27:17;100357.91;;;13.16
80422;BMP280;69763;50.182;9.144;2023-06-01T00:29:42;100358.53;;;13.09
80422;BMP280;69763;50.182;9.144;2023-06-01T00:32:07;100360.97;;;12.99
80422;BMP280;69763;50.182;9.144;2023-06-01T00:34:33;100354.88;;;12.93
80422;BMP280;69763;50.182;9.144;2023-06-01T00:36:59;100357.19;;;12.89
80422;BMP280;69763;50.182;9.144;2023-06-01T00:39:25;100355.31;;;12.84
80422;BMP280;69763;50.182;9.144;2023-06-01T00:41:50;100360.84;;;12.79
80422;BMP280;69763;50.182;9.144;2023-06-01T00:44:15;100351.41;;;12.80
80422;BMP280;69763;50.182;9.144;2023-06-01T00:46:41;100354.94;;;12.75
80422;BMP280;69763;50.182;9.144;2023-06-01T00:49:07;100359.09;;;12.63
80422;BMP280;69763;50.182;9.144;2023-06-01T00:51:32;100364.63;;;12.57
80422;BMP280;69763;50.182;9.144;2023-06-01T00:54:00;100356.59;;;12.51
80422;BMP280;69763;50.182;9.144;2023-06-01T00:56:25;100359.47;;;12.40
80422;BMP280;69763;50.182;9.144;2023-06-01T00:58:50;100351.91;;;12.33
80422;BMP280;69763;50.182;9.144;2023-06-01T01:01:16;100358.19;;;12.28
80422;BMP280;69763;50.182;9.144;2023-06-01T01:03:41;100358.19;;;12.28
80422;BMP280;69763;50.182;9.144;2023-06-01T01:06:07;100359.13;;;12.31
80422;BMP280;69763;50.182;9.144;2023-06-01T01:08:40;100359.66;;;12.29
80422;BMP280;69763;50.182;9.144;2023-06-01T01:11:12;100367.56;;;12.27
80422;BMP280;69763;50.182;9.144;2023-06-01T01:13:44;100360.97;;;12.23
80422;BMP280;69763;50.182;9.144;2023-06-01T01:16:17;100358.84;;;12.15
80422;BMP280;69763;50.182;9.144;2023-06-01T01:18:55;100361.13;;;12.11
80422;BMP280;69763;50.182;9.144;2023-06-01T01:21:26;100353.34;;;12.02
80422;BMP280;69763;50.182;9.144;2023-06-01T01:27:06;100364.38;;;11.91
80422;BMP280;69763;50.182;9.144;2023-06-01T01:29:37;100358.28;;;11.85
80422;BMP280;69763;50.182;9.144;2023-06-01T01:32:04;100361.00;;;11.85
80422;BMP280;69763;50.182;9.144;2023-06-01T01:34:30;100363.72;;;11.85
80422;BMP280;69763;50.182;9.144;2023-06-01T01:36:56;100363.22;;;11.87
80422;BMP280;69763;50.182;9.144;2023-06-01T01:39:21;100359.03;;;11.86
80422;BMP280;69763;50.182;9.144;2023-06-01T01:41:46;100357.56;;;11.85
80422;BMP280;69763;50.182;9.144;2023-06-01T01:44:12;100357.84;;;11.81
80422;BMP280;69763;50.182;9.144;2023-06-01T01:46:44;100350.72;;;11.78
80422;BMP280;69763;50.182;9.144;2023-06-01T01:49:15;100352.50;;;11.76
80422;BMP280;69763;50.182;9.144;2023-06-01T01:51:52;100347.34;;;11.72
80422;BMP280;69763;50.182;9.144;2023-06-01T01:54:19;100343.16;;;11.71
80422;BMP280;69763;50.182;9.144;2023-06-01T01:56:45;100342.28;;;11.63
80422;BMP280;69763;50.182;9.144;2023-06-01T01:59:11;100341.69;;;11.70
80422;BMP280;69763;50.182;9.144;2023-06-01T02:01:37;100340.22;;;11.69
80422;BMP280;69763;50.182;9.144;2023-06-01T02:04:04;100335.59;;;11.64
80422;BMP280;69763;50.182;9.144;2023-06-01T02:06:30;100335.06;;;11.65
80422;BMP280;69763;50.182;9.144;2023-06-01T02:08:55;100329.22;;;11.61
80422;BMP280;69763;50.182;9.144;2023-06-01T02:11:20;100336.38;;;11.59
80422;BMP280;69763;50.182;9.144;2023-06-01T02:13:46;100333.91;;;11.61
80422;BMP280;69763;50.182;9.144;2023-06-01T02:16:11;100330.44;;;11.60
80422;BMP280;69763;50.182;9.144;2023-06-01T02:18:36;100326.84;;;11.52
80422;BMP280;69763;50.182;9.144;2023-06-01T02:21:03;100316.81;;;11.47
80422;BMP280;69763;50.182;9.144;2023-06-01T02:23:28;100321.34;;;11.39
80422;BMP280;69763;50.182;9.144;2023-06-01T02:25:54;100322.38;;;11.36
80422;BMP280;69763;50.182;9.144;2023-06-01T02:28:19;100314.28;;;11.30
80422;BMP280;69763;50.182;9.144;2023-06-01T02:30:44;100318.97;;;11.30
80422;BMP280;69763;50.182;9.144;2023-06-01T02:33:10;100319.47;;;11.28
80422;BMP280;69763;50.182;9.144;2023-06-01T02:35:35;100324.22;;;11.22
80422;BMP280;69763;50.182;9.144;2023-06-01T02:38:02;100316.16;;;11.17
80422;BMP280;69763;50.182;9.144;2023-06-01T02:40:27;100317.44;;;11.10
80422;BMP280;69763;50.182;9.144;2023-06-01T02:42:52;100312.03;;;11.10
80422;BMP280;69763;50.182;9.144;2023-06-01T02:45:18;100321.41;;;11.09
80422;BMP280;69763;50.182;9.144;2023-06-01T02:47:43;100317.75;;;11.07
80422;BMP280;69763;50.182;9.144;2023-06-01T02:50:09;100324.69;;;11.02
80422;BMP280;69763;50.182;9.144;2023-06-01T02:52:34;100322.78;;;10.97
80422;BMP280;69763;50.182;9.144;2023-06-01T02:55:01;100320.50;;;11.01
80422;BMP280;69763;50.182;9.144;2023-06-01T02:57:26;100322.78;;;10.97
80422;BMP280;69763;50.182;9.144;2023-06-01T02:59:52;100313.38;;;10.98
80422;BMP280;69763;50.182;9.144;2023-06-01T03:02:17;100313.97;;;10.91
80422;BMP280;69763;50.182;9.144;2023-06-01T03:04:42;100314.97;;;10.88
80422;BMP280;69763;50.182;9.144;2023-06-01T03:07:08;100317.25;;;10.84
80422;BMP280;69763;50.182;9.144;2023-06-01T03:09:33;100316.00;;;10.85
80422;BMP280;69763;50.182;9.144;2023-06-01T03:12:00;100314.06;;;10.80
80422;BMP280;69763;50.182;9.144;2023-06-01T03:14:25;100315.03;;;10.82
80422;BMP280;69763;50.182;9.144;2023-06-01T03:16:50;100304.91;;;10.83
80422;BMP280;69763;50.182;9.144;2023-06-01T03:19:16;100302.44;;;10.85
80422;BMP280;69763;50.182;9.144;2023-06-01T03:21:41;100304.66;;;10.86
80422;BMP280;69763;50.182;9.144;2023-06-01T03:24:07;100309.50;;;10.94
80422;BMP280;69763;50.182;9.144;2023-06-01T03:26:32;100311.94;;;10.97
80422;BMP280;69763;50.182;9.144;2023-06-01T03:28:59;100315.06;;;11.01
80422;BMP280;69763;50.182;9.144;2023-06-01T03:31:24;100308.41;;;11.02
80422;BMP280;69763;50.182;9.144;2023-06-01T03:33:50;100311.84;;;11.03
80422;BMP280;69763;50.182;9.144;2023-06-01T03:36:15;100312.31;;;11.07
80422;BMP280;69763;50.182;9.144;2023-06-01T03:38:40;100315.97;;;11.09
80422;BMP280;69763;50.182;9.144;2023-06-01T03:41:06;100322.81;;;11.16
80422;BMP280;69763;50.182;9.144;2023-06-01T03:43:31;100322.59;;;11.14
80422;BMP280;69763;50.182;9.144;2023-06-01T03:45:58;100326.84;;;11.09
80422;BMP280;69763;50.182;9.144;2023-06-01T03:48:23;100318.44;;;11.13
80422;BMP280;69763;50.182;9.144;2023-06-01T03:50:48;100326.50;;;11.18
80422;BMP280;69763;50.182;9.144;2023-06-01T03:53:14;100323.72;;;11.24
80422;BMP280;69763;50.182;9.144;2023-06-01T03:55:39;100329.34;;;11.32
80422;BMP280;69763;50.182;9.144;2023-06-01T03:58:04;100328.09;;;11.33
80422;BMP280;69763;50.182;9.144;2023-06-01T04:00:30;100325.59;;;11.35
80422;BMP280;69763;50.182;9.144;2023-06-01T04:02:58;100326.31;;;11.35
80422;BMP280;69763;50.182;9.144;2023-06-01T04:05:24;100327.78;;;11.36
80422;BMP280;69763;50.182;9.144;2023-06-01T04:07:51;100329.47;;;11.39
80422;BMP280;69763;50.182;9.144;2023-06-01T04:10:17;100328.47;;;11.42
80422;BMP280;69763;50.182;9.144;2023-06-01T04:12:43;100316.81;;;11.47
80422;BMP280;69763;50.182;9.144;2023-06-01T04:15:09;100327.56;;;11.53
80422;BMP280;69763;50.182;9.144;2023-06-01T04:17:35;100318.84;;;11.60
80422;BMP280;69763;50.182;9.144;2023-06-01T04:20:03;100323.72;;;11.67
80422;BMP280;69763;50.182;9.144;2023-06-01T04:22:28;100323.13;;;11.74
80422;BMP280;69763;50.182;9.144;2023-06-01T04:24:53;100319.81;;;11.81
80422;BMP280;69763;50.182;9.144;2023-06-01T04:27:19;100306.41;;;11.89
80422;BMP280;69763;50.182;9.144;2023-06-01T04:29:44;100316.88;;;11.98
80422;BMP280;69763;50.182;9.144;2023-06-01T04:32:09;100319.22;;;12.07
80422;BMP280;69763;50.182;9.144;2023-06-01T04:34:35;100322.28;;;12.17
80422;BMP280;69763;50.182;9.144;2023-06-01T04:37:02;100323.34;;;12.27
80422;BMP280;69763;50.182;9.144;2023-06-01T04:39:27;100325.47;;;12.34
80422;BMP280;69763;50.182;9.144;2023-06-01T04:41:53;100325.84;;;12.43
80422;BMP280;69763;50.182;9.144;2023-06-01T04:44:18;100326.88;;;12.53
80422;BMP280;69763;50.182;9.144;2023-06-01T04:46:43;100327.44;;;12.65
80422;BMP280;69763;50.182;9.144;2023-06-01T04:49:09;100321.28;;;12.78
80422;BMP280;69763;50.182;9.144;2023-06-01T04:51:34;100316.91;;;12.88
80422;BMP280;69763;50.182;9.144;2023-06-01T04:54:01;100316.28;;;12.95
80422;BMP280;69763;50.182;9.144;2023-06-01T04:56:26;100325.47;;;13.05
80422;BMP280;69763;50.182;9.144;2023-06-01T04:58:52;100318.34;;;13.15
80422;BMP280;69763;50.182;9.144;2023-06-01T05:01:18;100324.13;;;13.25
80422;BMP280;69763;50.182;9.144;2023-06-01T05:03:44;100314.03;;;13.33
80422;BMP280;69763;50.182;9.144;2023-06-01T05:06:10;100326.41;;;13.47
80422;BMP280;69763;50.182;9.144;2023-06-01T05:08:35;100318.16;;;13.60
80422;BMP280;69763;50.182;9.144;2023-06-01T05:11:02;100320.66;;;13.71
80422;BMP280;69763;50.182;9.144;2023-06-01T05:13:27;100327.31;;;13.83
80422;BMP280;69763;50.182;9.144;2023-06-01T05:15:53;100330.66;;;13.90
80422;BMP280;69763;50.182;9.144;2023-06-01T05:18:18;100327.47;;;13.99
80422;BMP280;69763;50.182;9.144;2023-06-01T05:20:43;100328.47;;;14.09
80422;BMP280;69763;50.182;9.144;2023-06-01T05:23:09;100335.97;;;14.16
80422;BMP280;69763;50.182;9.144;2023-06-01T05:25:34;100341.69;;;14.25
80422;BMP280;69763;50.182;9.144;2023-06-01T05:28:01;100335.38;;;14.30
80422;BMP280;69763;50.182;9.144;2023-06-01T05:30:26;100333.88;;;14.43
80422;BMP280;69763;50.182;9.144;2023-06-01T05:32:51;100336.31;;;14.54
80422;BMP280;69763;50.182;9.144;2023-06-01T05:35:17;100335.81;;;14.63
80422;BMP280;69763;50.182;9.144;2023-06-01T05:37:42;100332.97;;;14.76
80422;BMP280;69763;50.182;9.144;2023-06-01T05:40:08;100331.63;;;14.90
80422;BMP280;69763;50.182;9.144;2023-06-01T05:42:34;100323.38;;;15.18
80422;BMP280;69763;50.182;9.144;2023-06-01T05:45:00;100332.91;;;15.33
80422;BMP280;69763;50.182;9.144;2023-06-01T05:47:26;100326.81;;;15.55
80422;BMP280;69763;50.182;9.144;2023-06-01T05:49:51;100328.66;;;15.75
80422;BMP280;69763;50.182;9.144;2023-06-01T05:52:16;100321.78;;;15.89
80422;BMP280;69763;50.182;9.144;2023-06-01T05:54:42;100317.75;;;15.98
80422;BMP280;69763;50.182;9.144;2023-06-01T05:57:07;100314.66;;;16.09
80422;BMP280;69763;50.182;9.144;2023-06-01T05:59:32;100326.31;;;16.17
80422;BMP280;69763;50.182;9.144;2023-06-01T06:01:59;100330.72;;;16.28
80422;BMP280;69763;50.182;9.144;2023-06-01T06:04:24;100325.03;;;16.48
80422;BMP280;69763;50.182;9.144;2023-06-01T06:06:50;100331.72;;;16.70
80422;BMP280;69763;50.182;9.144;2023-06-01T06:09:15;100327.84;;;16.96
80422;BMP280;69763;50.182;9.144;2023-06-01T06:11:40;100328.22;;;17.25
80422;BMP280;69763;50.182;9.144;2023-06-01T06:14:06;100329.94;;;17.53
80422;BMP280;69763;50.182;9.144;2023-06-01T06:16:31;100334.03;;;17.93
80422;BMP280;69763;50.182;9.144;2023-06-01T06:18:58;100321.63;;;18.69
80422;BMP280;69763;50.182;9.144;2023-06-01T06:21:23;100321.72;;;19.68
80422;BMP280;69763;50.182;9.144;2023-06-01T06:23:49;100333.84;;;20.50
80422;BMP280;69763;50.182;9.144;2023-06-01T06:26:14;100327.13;;;21.01
80422;BMP280;69763;50.182;9.144;2023-06-01T06:28:39;100325.88;;;21.63
80422;BMP280;69763;50.182;9.144;2023-06-01T06:31:05;100321.53;;;22.57
80422;BMP280;69763;50.182;9.144;2023-06-01T06:33:30;100326.28;;;23.59
80422;BMP280;69763;50.182;9.144;2023-06-01T06:35:57;100316.50;;;24.56
80422;BMP280;69763;50.182;9.144;2023-06-01T06:38:22;100316.88;;;25.87
80422;BMP280;69763;50.182;9.144;2023-06-01T06:40:48;100317.13;;;26.07
80422;BMP280;69763;50.182;9.144;2023-06-01T06:43:13;100316.09;;;26.61
80422;BMP280;69763;50.182;9.144;2023-06-01T06:45:38;100317.06;;;27.65
80422;BMP280;69763;50.182;9.144;2023-06-01T06:48:04;100312.41;;;28.64
80422;BMP280;69763;50.182;9.144;2023-06-01T06:50:29;100317.41;;;29.50
80422;BMP280;69763;50.182;9.144;2023-06-01T06:52:56;100320.66;;;30.89
80422;BMP280;69763;50.182;9.144;2023-06-01T06:55:22;100324.75;;;32.05
80422;BMP280;69763;50.182;9.144;2023-06-01T06:57:47;100323.84;;;31.62
80422;BMP280;69763;50.182;9.144;2023-06-01T07:00:13;100324.75;;;32.40
80422;BMP280;69763;50.182;9.144;2023-06-01T07:02:39;100331.88;;;31.78
80422;BMP280;69763;50.182;9.144;2023-06-01T07:05:05;100334.53;;;32.04
80422;BMP280;69763;50.182;9.144;2023-06-01T07:07:31;100328.88;;;32.37
80422;BMP280;69763;50.182;9.144;2023-06-01T07:09:57;100330.91;;;31.99
80422;BMP280;69763;50.182;9.144;2023-06-01T07:12:23;100334.41;;;31.98
80422;BMP280;69763;50.182;9.144;2023-06-01T07:14:48;100328.44;;;32.13
80422;BMP280;69763;50.182;9.144;2023-06-01T07:17:13;100325.09;;;31.89
80422;BMP280;69763;50.182;9.144;2023-06-01T07:19:39;100332.72;;;31.84
80422;BMP280;69763;50.182;9.144;2023-06-01T07:22:05;100326.19;;;32.83
80422;BMP280;69763;50.182;9.144;2023-06-01T07:24:30;100313.63;;;33.34
80422;BMP280;69763;50.182;9.144;2023-06-01T07:26:57;100311.06;;;33.48
80422;BMP280;69763;50.182;9.144;2023-06-01T07:29:22;100318.00;;;33.99
80422;BMP280;69763;50.182;9.144;2023-06-01T07:31:49;100317.63;;;33.67
80422;BMP280;69763;50.182;9.144;2023-06-01T07:34:15;100318.22;;;33.09
80422;BMP280;69763;50.182;9.144;2023-06-01T07:36:40;100326.25;;;32.85
80422;BMP280;69763;50.182;9.144;2023-06-01T07:39:06;100325.34;;;32.75
80422;BMP280;69763;50.182;9.144;2023-06-01T07:41:31;100323.50;;;32.89
80422;BMP280;69763;50.182;9.144;2023-06-01T07:43:58;100316.84;;;33.12
80422;BMP280;69763;50.182;9.144;2023-06-01T07:46:24;100317.16;;;32.49
80422;BMP280;69763;50.182;9.144;2023-06-01T07:48:49;100318.88;;;32.66
80422;BMP280;69763;50.182;9.144;2023-06-01T07:51:14;100310.59;;;33.16
80422;BMP280;69763;50.182;9.144;2023-06-01T07:53:40;100309.41;;;33.33
80422;BMP280;69763;50.182;9.144;2023-06-01T07:56:05;100317.44;;;33.53
80422;BMP280;69763;50.182;9.144;2023-06-01T07:58:30;100308.25;;;33.50
80422;BMP280;69763;50.182;9.144;2023-06-01T08:00:58;100311.06;;;33.48
80422;BMP280;69763;50.182;9.144;2023-06-01T08:03:23;100309.94;;;33.19
80422;BMP280;69763;50.182;9.144;2023-06-01T08:05:48;100303.19;;;33.39
80422;BMP280;69763;50.182;9.144;2023-06-01T08:08:14;100308.72;;;33.35
80422;BMP280;69763;50.182;9.144;2023-06-01T08:10:39;100307.91;;;32.40
80422;BMP280;69763;50.182;9.144;2023-06-01T08:13:05;100311.06;;;32.23
80422;BMP280;69763;50.182;9.144;2023-06-01T08:15:30;100306.28;;;31.94
80422;BMP280;69763;50.182;9.144;2023-06-01T08:17:57;100305.91;;;32.47
80422;BMP280;69763;50.182;9.144;2023-06-01T08:20:22;100297.59;;;31.81
80422;BMP280;69763;50.182;9.144;2023-06-01T08:22:48;100296.75;;;31.11
80422;BMP280;69763;50.182;9.144;2023-06-01T08:25:14;100290.31;;;31.07
80422;BMP280;69763;50.182;9.144;2023-06-01T08:27:40;100290.94;;;30.76
80422;BMP280;69763;50.182;9.144;2023-06-01T08:30:06;100286.22;;;30.82
80422;BMP280;69763;50.182;9.144;2023-06-01T08:32:33;100283.41;;;31.10
80422;BMP280;69763;50.182;9.144;2023-06-01T08:34:59;100281.56;;;31.50
80422;BMP280;69763;50.182;9.144;2023-06-01T08:37:25;100278.75;;;31.50
80422;BMP280;69763;50.182;9.144;2023-06-01T08:39:50;100280.88;;;31.52
80422;BMP280;69763;50.182;9.144;2023-06-01T08:42:20;100271.53;;;32.09
80422;BMP280;69763;50.182;9.144;2023-06-01T08:44:53;100275.59;;;32.02
80422;BMP280;69763;50.182;9.144;2023-06-01T08:47:19;100273.91;;;31.53
80422;BMP280;69763;50.182;9.144;2023-06-01T08:49:45;100271.75;;;31.51
80422;BMP280;69763;50.182;9.144;2023-06-01T08:52:13;100267.16;;;32.00
80422;BMP280;69763;50.182;9.144;2023-06-01T08:54:39;100265.16;;;32.44
80422;BMP280;69763;50.182;9.144;2023-06-01T08:57:06;100265.16;;;32.44
80422;BMP280;69763;50.182;9.144;2023-06-01T08:59:32;100266.78;;;31.81
80422;BMP280;69763;50.182;9.144;2023-06-01T09:01:57;100258.28;;;31.77
80422;BMP280;69763;50.182;9.144;2023-06-01T09:04:23;100252.59;;;32.07
80422;BMP280;69763;50.182;9.144;2023-06-01T09:06:48;100254.53;;;32.38
80422;BMP280;69763;50.182;9.144;2023-06-01T09:09:15;100251.78;;;32.40
80422;BMP280;69763;50.182;9.144;2023-06-01T09:11:40;100253.28;;;32.45
80422;BMP280;69763;50.182;9.144;2023-06-01T09:14:19;100249.22;;;32.15
80422;BMP280;69763;50.182;9.144;2023-06-01T09:16:45;100244.31;;;32.13
80422;BMP280;69763;50.182;9.144;2023-06-01T09:19:10;100238.72;;;32.15
80422;BMP280;69763;50.182;9.144;2023-06-01T09:21:35;100244.84;;;32.06
80422;BMP280;69763;50.182;9.144;2023-06-01T09:24:20;100239.34;;;32.12
80422;BMP280;69763;50.182;9.144;2023-06-01T09:26:47;100243.59;;;32.13
80422;BMP280;69763;50.182;9.144;2023-06-01T09:29:13;100242.81;;;32.08
80422;BMP280;69763;50.182;9.144;2023-06-01T09:31:39;100230.63;;;31.96
80422;BMP280;69763;50.182;9.144;2023-06-01T09:34:05;100233.84;;;31.82
80422;BMP280;69763;50.182;9.144;2023-06-01T09:36:31;100226.66;;;31.39
80422;BMP280;69763;50.182;9.144;2023-06-01T09:39:00;100228.16;;;31.12
80422;BMP280;69763;50.182;9.144;2023-06-01T09:41:27;100230.97;;;31.12
80422;BMP280;69763;50.182;9.144;2023-06-01T09:43:52;100221.81;;;31.10
80422;BMP280;69763;50.182;9.144;2023-06-01T09:46:18;100222.47;;;30.79
80422;BMP280;69763;50.182;9.144;2023-06-01T09:48:43;100218.34;;;30.82
80422;BMP280;69763;50.182;9.144;2023-06-01T09:51:21;100215.84;;;30.38
80422;BMP280;69763;50.182;9.144;2023-06-01T09:53:46;100225.94;;;30.24
80422;BMP280;69763;50.182;9.144;2023-06-01T09:56:11;100218.81;;;30.19
80422;BMP280;69763;50.182;9.144;2023-06-01T09:58:38;100221.25;;;30.30
80422;BMP280;69763;50.182;9.144;2023-06-01T10:01:04;100212.00;;;30.26
80422;BMP280;69763;50.182;9.144;2023-06-01T10:03:30;100215.81;;;30.11
80422;BMP280;69763;50.182;9.144;2023-06-01T10:05:55;100210.50;;;29.95
80422;BMP280;69763;50.182;9.144;2023-06-01T10:08:21;100206.41;;;29.74
80422;BMP280;69763;50.182;9.144;2023-06-01T10:10:48;100212.00;;;29.29
80422;BMP280;69763;50.182;9.144;2023-06-01T10:13:14;100211.47;;;28.89
80422;BMP280;69763;50.182;9.144;2023-06-01T10:15:41;100209.25;;;28.25
80422;BMP280;69763;50.182;9.144;2023-06-01T10:18:07;100206.53;;;27.70
80422;BMP280;69763;50.182;9.144;2023-06-01T10:20:32;100200.03;;;27.45
80422;BMP280;69763;50.182;9.144;2023-06-01T10:22:59;100187.56;;;27.47
80422;BMP280;69763;50.182;9.144;2023-06-01T10:25:25;100196.78;;;27.33
80422;BMP280;69763;50.182;9.144;2023-06-01T10:27:52;100186.91;;;27.30
80422;BMP280;69763;50.182;9.144;2023-06-01T10:30:19;100204.38;;;26.98
80422;BMP280;69763;50.182;9.144;2023-06-01T10:32:46;100201.84;;;26.70
80422;BMP280;69763;50.182;9.144;2023-06-01T10:38:23;100188.16;;;26.92
80422;BMP280;69763;50.182;9.144;2023-06-01T10:40:48;100190.06;;;27.05
80422;BMP280;69763;50.182;9.144;2023-06-01T10:43:41;100189.78;;;27.32
80422;BMP280;69763;50.182;9.144;2023-06-01T10:46:33;100182.16;;;27.51
80422;BMP280;69763;50.182;9.144;2023-06-01T10:49:00;100177.94;;;27.69
80422;BMP280;69763;50.182;9.144;2023-06-01T10:51:25;100176.72;;;27.37
80422;BMP280;69763;50.182;9.144;2023-06-01T10:53:51;100176.41;;;27.11
80422;BMP280;69763;50.182;9.144;2023-06-01T10:56:20;100179.72;;;27.08
80422;BMP280;69763;50.182;9.144;2023-06-01T10:58:46;100171.72;;;26.98
80422;BMP280;69763;50.182;9.144;2023-06-01T11:01:17;100172.09;;;27.08
80422;BMP280;69763;50.182;9.144;2023-06-01T11:03:44;100173.56;;;27.27
80422;BMP280;69763;50.182;9.144;2023-06-01T11:06:24;100183.16;;;27.06
80422;BMP280;69763;50.182;9.144;2023-06-01T11:08:51;100165.75;;;26.88
80422;BMP280;69763;50.182;9.144;2023-06-01T11:11:17;100169.25;;;26.89
80422;BMP280;69763;50.182;9.144;2023-06-01T11:13:43;100162.16;;;27.03
80422;BMP280;69763;50.182;9.144;2023-06-01T11:16:28;100157.09;;;27.33
80422;BMP280;69763;50.182;9.144;2023-06-01T11:18:54;100153.13;;;27.38
80422;BMP280;69763;50.182;9.144;2023-06-01T11:21:20;100152.25;;;27.33
80422;BMP280;69763;50.182;9.144;2023-06-01T11:23:48;100151.06;;;27.38
80422;BMP280;69763;50.182;9.144;2023-06-01T11:26:15;100146.50;;;27.47
80422;BMP280;69763;50.182;9.144;2023-06-01T11:28:41;100143.69;;;27.65
80422;BMP280;69763;50.182;9.144;2023-06-01T11:31:08;100140.88;;;27.82
80422;BMP280;69763;50.182;9.144;2023-06-01T11:33:37;100137.03;;;27.91
80422;BMP280;69763;50.182;9.144;2023-06-01T11:36:03;100137.94;;;27.98
80422;BMP280;69763;50.182;9.144;2023-06-01T11:38:32;100144.44;;;28.04
80422;BMP280;69763;50.182;9.144;2023-06-01T11:40:59;100141.06;;;28.08
80422;BMP280;69763;50.182;9.144;2023-06-01T11:43:29;100130.06;;;28.12
80422;BMP280;69763;50.182;9.144;2023-06-01T11:45:59;100128.97;;;28.41
80422;BMP280;69763;50.182;9.144;2023-06-01T11:48:25;100133.94;;;28.23
80422;BMP280;69763;50.182;9.144;2023-06-01T11:50:50;100125.06;;;27.89
80422;BMP280;69763;50.182;9.144;2023-06-01T11:53:15;100116.31;;;27.96
80422;BMP280;69763;50.182;9.144;2023-06-01T11:55:48;100118.69;;;27.67
80422;BMP280;69763;50.182;9.144;2023-06-01T11:58:20;100122.72;;;27.44
80422;BMP280;69763;50.182;9.144;2023-06-01T12:00:45;100122.44;;;27.36
80422;BMP280;69763;50.182;9.144;2023-06-01T12:03:11;100121.19;;;27.59
80422;BMP280;69763;50.182;9.144;2023-06-01T12:05:39;100119.59;;;27.91
80422;BMP280;69763;50.182;9.144;2023-06-01T12:08:05;100116.81;;;28.32
80422;BMP280;69763;50.182;9.144;2023-06-01T12:10:30;100118.25;;;28.33
80422;BMP280;69763;50.182;9.144;2023-06-01T12:12:56;100115.09;;;28.01
80422;BMP280;69763;50.182;9.144;2023-06-01T12:15:23;100125.69;;;28.07
80422;BMP280;69763;50.182;9.144;2023-06-01T12:17:50;100107.69;;;28.30
80422;BMP280;69763;50.182;9.144;2023-06-01T12:20:28;100107.19;;;28.35
80422;BMP280;69763;50.182;9.144;2023-06-01T12:22:54;100113.22;;;28.49
80422;BMP280;69763;50.182;9.144;2023-06-01T12:25:19;100107.13;;;28.55
80422;BMP280;69763;50.182;9.144;2023-06-01T12:27:59;100101.53;;;28.77
80422;BMP280;69763;50.182;9.144;2023-06-01T12:30:26;100095.78;;;28.92
80422;BMP280;69763;50.182;9.144;2023-06-01T12:32:51;100090.88;;;28.93
80422;BMP280;69763;50.182;9.144;2023-06-01T12:35:16;100101.47;;;28.75
80422;BMP280;69763;50.182;9.144;2023-06-01T12:37:42;100097.72;;;28.66
80422;BMP280;69763;50.182;9.144;2023-06-01T12:40:07;100093.91;;;28.77
80422;BMP280;69763;50.182;9.144;2023-06-01T12:42:33;100087.47;;;28.94
80422;BMP280;69763;50.182;9.144;2023-06-01T12:44:59;100083.47;;;29.01
80422;BMP280;69763;50.182;9.144;2023-06-01T12:47:26;100084.16;;;29.00
80422;BMP280;69763;50.182;9.144;2023-06-01T12:50:04;100079.63;;;28.67
80422;BMP280;69763;50.182;9.144;2023-06-01T12:52:30;100087.22;;;28.43
80422;BMP280;69763;50.182;9.144;2023-06-01T12:54:55;100085.22;;;28.67
80422;BMP280;69763;50.182;9.144;2023-06-01T12:57:20;100075.75;;;28.76
80422;BMP280;69763;50.182;9.144;2023-06-01T12:59:46;100072.81;;;28.72
80422;BMP280;69763;50.182;9.144;2023-06-01T13:02:11;100068.06;;;28.77
80422;BMP280;69763;50.182;9.144;2023-06-01T13:04:37;100070.31;;;29.04
80422;BMP280;69763;50.182;9.144;2023-06-01T13:07:03;100074.16;;;29.16
80422;BMP280;69763;50.182;9.144;2023-06-01T13:09:28;100063.00;;;29.16
80422;BMP280;69763;50.182;9.144;2023-06-01T13:11:54;100061.56;;;29.39
80422;BMP280;69763;50.182;9.144;2023-06-01T13:14:19;100059.41;;;29.38
80422;BMP280;69763;50.182;9.144;2023-06-01T13:16:44;100063.94;;;29.25
80422;BMP280;69763;50.182;9.144;2023-06-01T13:19:09;100055.88;;;29.61
80422;BMP280;69763;50.182;9.144;2023-06-01T13:21:36;100055.22;;;29.88
80422;BMP280;69763;50.182;9.144;2023-06-01T13:24:01;100051.44;;;30.05
80422;BMP280;69763;50.182;9.144;2023-06-01T13:26:27;100052.22;;;30.08
80422;BMP280;69763;50.182;9.144;2023-06-01T13:28:52;100052.22;;;30.08
80422;BMP280;69763;50.182;9.144;2023-06-01T13:31:17;100042.63;;;30.17
80422;BMP280;69763;50.182;9.144;2023-06-01T13:33:43;100042.66;;;29.89
80422;BMP280;69763;50.182;9.144;2023-06-01T13:36:08;100050.44;;;29.67
80422;BMP280;69763;50.182;9.144;2023-06-01T13:38:34;100045.59;;;29.69
80422;BMP280;69763;50.182;9.144;2023-06-01T13:41:00;100050.13;;;29.55
80422;BMP280;69763;50.182;9.144;2023-06-01T13:43:25;100036.81;;;29.79
80422;BMP280;69763;50.182;9.144;2023-06-01T13:45:50;100044.38;;;30.02
80422;BMP280;69763;50.182;9.144;2023-06-01T13:48:16;100033.69;;;30.22
80422;BMP280;69763;50.182;9.144;2023-06-01T13:50:41;100038.19;;;30.06
80422;BMP280;69763;50.182;9.144;2023-06-01T13:53:06;100044.41;;;29.76
80422;BMP280;69763;50.182;9.144;2023-06-01T13:55:33;100032.06;;;29.58
80422;BMP280;69763;50.182;9.144;2023-06-01T13:57:58;100029.63;;;29.72